Latest Weather Observations for PORTABLE QFRI (Inglewood)

IDQ60801

Issued at 7:32 pm EST Friday 16 November 2018 (issued every 10 minutes, with the page automatically refreshed every 10 minutes)

About weather observations | Map of weather stations | Latest weather observations for QLD | Other Formats
Station Details ID: 250073 Name: PORTABLE QFRI (INGLEWOOD) Lat: -28.42 Lon: 151.10 Height: 286.0 m
Data from the previous 72 hours. | See also: Recent months for locations in Queensland
Date/Time
EST
Temp
°C
App
Temp
°C
Dew
Point
°C
Rel
Hum
%
Delta-T
°C
Wind Press
QNH
hPa
Press
MSL
hPa
Rain since
9am
mm
Dir  Spd
km/h
Gust
km/h
Spd
kts
Gust
kts
16/07:20pm 30.3 27.1 5.0 20 13.4 SW 11 11 6 6 - - 0.0
16/07:10pm 30.6 27.3 4.8 19 13.6 SW 11 13 6 7 - - 0.0
16/07:00pm 30.8 27.5 4.8 19 13.7 SW 11 13 6 7 - - 0.0
16/06:50pm 31.2 27.6 4.9 19 13.9 SW 13 15 7 8 - - 0.0
16/06:40pm 31.7 27.7 5.0 18 14.2 SW 15 17 8 9 - - 0.0
16/06:30pm 32.2 27.8 4.5 17 14.7 SW 17 20 9 11 - - 0.0
16/06:20pm 32.8 28.0 4.4 17 15.1 WSW 19 22 10 12 - - 0.0
16/06:10pm 33.3 28.2 4.3 16 15.4 WSW 20 22 11 12 - - 0.0
16/06:00pm 33.6 29.6 4.8 16 15.4 SW 15 19 8 10 - - 0.0
16/05:50pm 33.9 28.9 4.8 16 15.6 SW 20 24 11 13 - - 0.0
16/05:40pm 34.2 28.8 4.6 15 15.9 WSW 22 28 12 15 - - 0.0
16/05:30pm 34.4 30.0 4.5 15 16.0 WSW 17 20 9 11 - - 0.0
16/05:20pm 34.4 29.4 4.5 15 16.0 WSW 20 26 11 14 - - 0.0
16/05:10pm 34.4 29.4 4.8 16 15.9 WSW 20 24 11 13 - - 0.0
16/05:00pm 34.4 29.5 5.1 16 15.8 SW 20 28 11 15 - - 0.0
16/04:50pm 34.5 29.8 5.3 16 15.8 WSW 19 26 10 14 - - 0.0
16/04:40pm 35.1 30.7 4.8 15 16.4 SSW 17 24 9 13 - - 0.0
16/04:30pm 34.9 30.3 5.4 16 16.1 SW 19 24 10 13 - - 0.0
16/04:20pm 35.0 30.1 5.0 15 16.2 SW 20 26 11 14 - - 0.0
16/04:10pm 35.5 31.1 4.5 14 16.7 WSW 17 26 9 14 - - 0.0
16/04:00pm 35.4 31.7 6.1 16 16.2 WSW 15 20 8 11 - - 0.0
16/03:50pm 35.3 31.8 5.3 15 16.3 WNW 13 17 7 9 - - 0.0
16/03:40pm 35.3 31.1 5.9 16 16.2 SW 17 22 9 12 - - 0.0
16/03:30pm 35.2 32.1 5.6 16 16.2 WNW 11 13 6 7 - - 0.0
16/03:20pm 34.3 30.5 5.7 17 15.6 WSW 15 22 8 12 - - 0.0
16/03:10pm 34.8 30.5 5.2 16 16.1 WSW 17 26 9 14 - - 0.0
16/03:00pm 34.7 30.5 5.6 16 15.9 WSW 17 22 9 12 - - 0.0
16/02:50pm 34.9 30.5 4.5 15 16.3 SW 17 26 9 14 - - 0.0
16/02:40pm 34.8 30.5 5.2 16 16.1 SW 17 22 9 12 - - 0.0
16/02:30pm 35.1 30.9 5.5 16 16.2 SW 17 19 9 10 - - 0.0
16/02:20pm 35.1 31.1 5.0 15 16.3 WSW 15 24 8 13 - - 0.0
16/02:10pm 34.2 29.7 4.0 15 16.0 SW 17 22 9 12 - - 0.0
16/02:00pm 34.0 29.3 5.3 16 15.5 SW 19 26 10 14 - - 0.0
16/01:50pm 34.7 31.2 5.4 16 15.9 W 13 22 7 12 - - 0.0
16/01:40pm 35.0 29.2 4.2 14 16.5 WSW 24 28 13 15 - - 0.0
16/01:30pm 34.6 31.8 5.1 16 16.0 SW 9 17 5 9 - - 0.0
16/01:20pm 34.5 29.7 4.8 15 16.0 SW 19 28 10 15 - - 0.0
16/01:10pm 34.9 29.6 5.2 16 16.1 SW 22 30 12 16 - - 0.0
16/01:00pm 34.5 30.1 4.5 15 16.1 SW 17 24 9 13 - - 0.0
16/12:50pm 34.1 29.3 5.7 17 15.5 SW 20 28 11 15 - - 0.0
16/12:40pm 34.3 30.7 5.0 16 15.8 WSW 13 19 7 10 - - 0.0
16/12:30pm 33.6 31.3 7.4 19 14.6 NW 9 17 5 9 - - 0.0
16/12:20pm 34.0 31.1 8.2 20 14.6 NW 13 17 7 9 - - 0.0
16/12:10pm 34.4 32.3 8.4 20 14.8 WNW 9 20 5 11 - - 0.0
16/12:00pm 33.5 32.1 9.5 23 13.8 SW 7 15 4 8 - - 0.0
16/11:50am 33.3 30.6 9.1 22 13.9 W 13 20 7 11 - - 0.0
16/11:40am 32.7 31.0 9.9 24 13.2 N 9 15 5 8 - - 0.0
16/11:30am 32.4 31.3 10.7 26 12.7 NNE 7 13 4 7 - - 0.0
16/11:20am 31.7 30.6 12.0 30 11.7 NNE 9 15 5 8 - - 0.0
16/11:10am 31.8 30.8 12.2 30 11.7 E 9 13 5 7 - - 0.0
16/11:00am 31.5 30.7 12.8 32 11.3 NNE 9 13 5 7 - - 0.0
16/10:50am 31.0 30.2 13.0 33 10.8 NE 9 17 5 9 - - 0.0
16/10:40am 31.1 30.3 12.9 32 11.0 N 9 13 5 7 - - 0.0
16/10:30am 31.0 30.8 13.6 34 10.6 N 7 13 4 7 - - 0.0
16/10:20am 30.6 30.5 13.8 35 10.2 NNW 7 13 4 7 - - 0.0
16/10:10am 30.8 30.5 13.4 34 10.5 NW 7 13 4 7 - - 0.0
16/10:00am 30.2 29.5 13.3 35 10.2 NW 9 15 5 8 - - 0.0
16/09:50am 29.7 28.7 13.4 36 9.8 NNW 11 15 6 8 - - 0.0
16/09:40am 29.1 28.9 13.7 38 9.3 N 7 15 4 8 - - 0.0
16/09:30am 29.1 27.4 13.6 38 9.4 N 15 19 8 10 - - 0.0
16/09:20am 28.7 27.5 14.0 40 8.9 N 13 20 7 11 - - 0.0
16/09:10am 28.5 27.7 13.9 40 8.8 N 11 15 6 8 - - 0.0
16/09:00am 27.9 27.0 13.7 41 8.5 NNE 11 17 6 9 - - 0.0
16/08:50am 27.4 26.2 14.0 43 8.1 NNE 13 17 7 9 - - 0.0
16/08:40am 27.3 26.2 14.4 45 7.8 NNE 13 15 7 8 - - 0.0
16/08:30am 27.1 26.4 14.3 45 7.7 NNE 11 15 6 8 - - 0.0
16/08:20am 26.5 25.2 14.7 48 7.2 NNE 15 20 8 11 - - 0.0
16/08:10am 25.9 24.5 14.6 49 6.8 NE 15 19 8 10 - - 0.0
16/08:00am 25.8 24.4 14.4 49 6.9 NNE 15 19 8 10 - - 0.0
16/07:50am 25.4 24.4 14.6 51 6.5 NE 13 17 7 9 - - 0.0
16/07:40am 25.0 24.0 14.7 52 6.2 NNE 13 17 7 9 - - 0.0
16/07:30am 24.5 23.2 14.8 54 5.9 NNE 15 19 8 10 - - 0.0
16/07:20am 24.2 22.9 14.9 56 5.6 NNE 15 19 8 10 - - 0.0
16/07:10am 23.7 22.5 15.0 58 5.3 NNE 15 19 8 10 - - 0.0
16/07:00am 23.4 22.5 14.9 59 5.1 NNE 13 20 7 11 - - 0.0
16/06:50am 23.2 22.9 15.4 61 4.7 NNE 11 15 6 8 - - 0.0
16/06:40am 22.9 23.4 15.5 63 4.5 NNE 7 9 4 5 - - 0.0
16/06:30am 22.4 22.5 15.5 65 4.2 NNE 9 13 5 7 - - 0.0
16/06:20am 22.1 22.7 15.8 67 3.8 NNE 7 11 4 6 - - 0.0
16/06:10am 21.8 22.5 16.0 69 3.5 NNE 7 9 4 5 - - 0.0
16/06:00am 21.6 22.4 15.9 70 3.5 NE 6 7 3 4 - - 0.0
16/05:50am 21.1 21.9 15.8 71 3.2 NE 6 7 3 4 - - 0.0
16/05:40am 20.8 21.6 15.8 73 3.0 NE 6 7 3 4 - - 0.0
16/05:30am 20.5 21.1 15.7 74 2.9 NE 7 9 4 5 - - 0.0
16/05:20am 20.2 20.7 15.6 75 2.8 ENE 7 9 4 5 - - 0.0
16/05:00am 19.8 20.3 15.5 76 2.6 ENE 7 9 4 5 - - 0.0
16/04:50am 19.6 19.3 15.4 77 2.5 ENE 11 11 6 6 - - 0.0
16/04:40am 19.6 19.6 15.3 76 2.6 ENE 9 13 5 7 - - 0.0
16/04:30am 19.6 19.6 15.1 75 2.7 ENE 9 11 5 6 - - 0.0
16/04:20am 19.4 19.3 15.0 75 2.6 ENE 9 11 5 6 - - 0.0
16/04:10am 19.2 18.8 15.1 77 2.4 E 11 13 6 7 - - 0.0
16/04:00am 19.0 18.9 15.0 77 2.4 E 9 11 5 6 - - 0.0
16/03:50am 19.3 19.6 15.0 76 2.5 E 7 9 4 5 - - 0.0
16/03:40am 20.2 20.8 15.2 73 3.0 ENE 6 6 3 3 - - 0.0
16/03:30am 20.7 21.2 15.1 70 3.3 ENE 6 7 3 4 - - 0.0
16/03:20am 20.8 21.3 15.1 70 3.4 ENE 6 6 3 3 - - 0.0
16/03:10am 20.9 21.4 15.0 69 3.5 NE 6 7 3 4 - - 0.0
16/03:00am 21.0 21.8 14.9 68 3.6 NE 4 6 2 3 - - 0.0
16/02:50am 21.2 22.0 14.8 67 3.8 NE 4 6 2 3 - - 0.0
16/02:40am 21.2 21.6 14.8 67 3.8 NE 6 6 3 3 - - 0.0
16/02:30am 21.5 22.3 14.8 65 4.0 NE 4 6 2 3 - - 0.0
16/02:20am 21.7 22.5 14.8 65 4.1 NE 4 6 2 3 - - 0.0
16/02:10am 21.9 22.3 14.8 64 4.2 NE 6 6 3 3 - - 0.0
16/02:00am 22.1 22.5 14.7 63 4.4 NE 6 7 3 4 - - 0.0
16/01:50am 22.3 22.7 14.8 62 4.5 NE 6 7 3 4 - - 0.0
16/01:40am 22.4 22.6 14.7 61 4.6 NE 7 9 4 5 - - 0.0
16/01:30am 22.6 22.8 14.8 61 4.7 NE 7 9 4 5 - - 0.0
16/01:20am 22.8 23.0 14.8 60 4.8 NE 7 7 4 4 - - 0.0
16/01:10am 23.0 23.2 14.8 60 4.9 NE 7 9 4 5 - - 0.0
16/01:00am 23.1 22.9 14.7 59 5.0 NE 9 11 5 6 - - 0.0
16/12:50am 23.1 22.8 14.3 57 5.2 NE 9 11 5 6 - - 0.0
16/12:40am 22.9 23.0 13.9 57 5.3 NE 6 7 3 4 - - 0.0
16/12:30am 22.9 22.9 13.6 55 5.5 NE 6 7 3 4 - - 0.0
16/12:20am 22.8 22.5 13.4 55 5.5 NE 7 9 4 5 - - 0.0
16/12:10am 22.7 21.3 13.3 55 5.5 ENE 13 15 7 8 - - 0.0
16/12:00am 22.8 21.3 13.1 54 5.7 ENE 13 13 7 7 - - 0.0
 
Date/Time
EST
Temp
°C
App
Temp
°C
Dew
Point
°C
Rel
Hum
%
Delta-T
°C
Wind Press
QNH
hPa
Press
MSL
hPa
Rain since
9am
mm
Dir  Spd
km/h
Gust
km/h
Spd
kts
Gust
kts
15/11:50pm 22.4 21.3 13.1 55 5.4 ENE 11 13 6 7 - - 0.0
15/11:40pm 22.5 21.7 13.0 55 5.5 E 9 11 5 6 - - 0.0
15/11:30pm 23.2 22.1 13.1 53 5.9 E 11 11 6 6 - - 0.0
15/11:20pm 23.9 23.1 12.9 50 6.4 ENE 9 11 5 6 - - 0.0
15/11:10pm 24.0 22.8 12.8 49 6.5 ENE 11 11 6 6 - - 0.0
15/11:00pm 24.1 22.9 12.9 49 6.5 ENE 11 13 6 7 - - 0.0
15/10:50pm 24.3 23.4 12.5 47 6.9 ENE 9 13 5 7 - - 0.0
15/10:40pm 23.7 23.0 12.0 48 6.7 ENE 7 9 4 5 - - 0.0
15/10:30pm 23.3 22.7 12.4 50 6.3 E 7 9 4 5 - - 0.0
15/10:20pm 24.2 23.7 12.0 46 7.0 ENE 6 7 3 4 - - 0.0
15/10:10pm 24.8 24.1 11.5 43 7.6 ENE 6 6 3 3 - - 0.0
15/10:00pm 24.7 23.0 11.2 42 7.7 ENE 11 11 6 6 - - 0.0
15/09:50pm 25.0 23.7 11.1 41 7.9 ENE 9 11 5 6 - - 0.0
15/09:40pm 25.5 23.7 10.9 40 8.3 E 11 13 6 7 - - 0.0
15/09:30pm 26.2 25.2 11.1 38 8.6 ENE 7 9 4 5 - - 0.0
15/09:20pm 26.1 25.0 10.6 37 8.8 ENE 7 9 4 5 - - 0.0
15/09:10pm 25.1 23.4 9.7 37 8.6 NE 9 11 5 6 - - 0.0
15/09:00pm 23.2 21.5 10.0 43 7.3 ENE 9 11 5 6 - - 0.0
15/08:50pm 24.2 23.3 10.5 42 7.7 ENE 6 6 3 3 - - 0.0
15/08:40pm 24.1 23.8 10.2 41 7.8 ENE 2 6 1 3 - - 0.0
15/08:30pm 24.9 25.0 10.0 39 8.3 CALM 0 0 0 0 - - 0.0
15/08:20pm 25.3 25.5 10.5 39 8.4 CALM 0 2 0 1 - - 0.0
15/08:10pm 26.2 26.4 10.6 37 8.9 CALM 0 2 0 1 - - 0.0
15/08:00pm 26.9 26.9 9.7 34 9.7 CALM 0 2 0 1 - - 0.0
15/07:50pm 27.2 26.2 9.0 31 10.1 N 4 6 2 3 - - 0.0
15/07:40pm 26.8 25.9 9.4 33 9.7 N 4 6 2 3 - - 0.0
15/07:30pm 27.8 27.5 10.1 33 10.0 SE 2 4 1 2 - - 0.0
15/07:20pm 28.4 27.5 9.3 30 10.7 SSE 4 4 2 2 - - 0.0
15/07:10pm 28.7 27.8 9.3 29 10.9 S 4 4 2 2 - - 0.0
15/07:00pm 29.2 28.3 9.3 29 11.2 S 4 4 2 2 - - 0.0
15/06:50pm 29.7 28.4 9.1 27 11.6 S 6 7 3 4 - - 0.0
15/06:40pm 30.2 28.7 9.0 26 11.9 S 7 7 4 4 - - 0.0
15/06:30pm 30.5 28.9 8.8 26 12.2 S 7 11 4 6 - - 0.0
15/06:20pm 31.0 29.0 8.8 25 12.5 SSW 9 15 5 8 - - 0.0
15/06:10pm 31.5 29.0 8.4 23 13.0 SSW 11 13 6 7 - - 0.0
15/06:00pm 31.8 29.3 8.3 23 13.2 SSW 11 13 6 7 - - 0.0
15/05:50pm 32.0 29.1 8.2 23 13.4 SW 13 19 7 10 - - 0.0
15/05:40pm 32.0 28.7 8.0 22 13.4 SW 15 19 8 10 - - 0.0
15/05:30pm 31.8 27.7 7.7 22 13.4 SW 19 22 10 12 - - 0.0
15/05:20pm 31.7 28.7 7.6 22 13.4 SW 13 20 7 11 - - 0.0
15/05:10pm 32.2 28.8 7.8 22 13.6 SSW 15 19 8 10 - - 0.0
15/05:00pm 32.7 29.3 7.8 21 13.9 SW 15 19 8 10 - - 0.0
15/04:50pm 32.9 29.4 7.2 20 14.3 SW 15 20 8 11 - - 0.0
15/04:40pm 32.5 28.7 7.7 21 13.8 SW 17 22 9 12 - - 0.0
15/04:30pm 33.0 29.5 7.3 20 14.3 SW 15 19 8 10 - - 0.0
15/04:20pm 33.6 30.9 7.2 19 14.7 SSW 11 19 6 10 - - 0.0
15/04:10pm 33.1 30.4 7.4 20 14.3 SSW 11 15 6 8 - - 0.0
15/04:00pm 33.4 31.1 7.5 20 14.5 SSW 9 13 5 7 - - 0.0
15/03:50pm 33.6 30.0 6.9 19 14.8 SW 15 22 8 12 - - 0.0
15/03:40pm 34.0 32.3 8.2 20 14.6 WSW 7 9 4 5 - - 0.0
15/03:30pm 34.1 33.3 8.0 20 14.7 NW 2 4 1 2 - - 0.0
15/03:20pm 33.0 31.0 7.3 20 14.3 SW 7 11 4 6 - - 0.0
15/03:10pm 32.1 30.0 8.1 22 13.5 SW 9 13 5 7 - - 0.0
15/03:00pm 32.1 30.4 8.3 23 13.4 WSW 7 11 4 6 - - 0.0
15/02:50pm 32.5 30.5 8.6 22 13.5 SW 9 17 5 9 - - 0.0
15/02:40pm 33.1 29.6 8.8 22 13.8 WSW 17 20 9 11 - - 0.0
15/02:30pm 33.2 31.3 9.1 22 13.8 SW 9 15 5 8 - - 0.0
15/02:20pm 33.0 31.2 9.5 23 13.5 SSW 9 13 5 7 - - 0.0
15/02:10pm 32.9 32.1 9.7 24 13.4 E 4 7 2 4 - - 0.0
15/02:00pm 32.4 31.3 10.8 26 12.7 NW 7 11 4 6 - - 0.0
15/01:50pm 32.9 32.0 11.2 26 12.8 NNW 7 11 4 6 - - 0.0
15/01:40pm 32.0 31.2 10.9 27 12.4 NNW 6 9 3 5 - - 0.0
15/01:30pm 31.4 30.8 11.6 29 11.7 N 6 9 3 5 - - 0.0
15/01:20pm 31.3 30.8 10.9 28 11.9 E 4 6 2 3 - - 0.0
15/01:10pm 30.6 29.7 11.3 30 11.3 SE 7 9 4 5 - - 0.0
15/01:00pm 31.4 30.6 11.2 29 11.9 S 6 13 3 7 - - 0.0
15/12:50pm 31.5 30.9 11.8 30 11.7 NW 6 7 3 4 - - 0.0
15/12:40pm 31.6 31.3 11.4 29 11.9 NNE 4 7 2 4 - - 0.0
15/12:30pm 30.9 30.2 11.5 30 11.4 NW 6 9 3 5 - - 0.0
15/12:20pm 30.7 29.9 11.7 31 11.2 W 7 17 4 9 - - 0.0
15/12:10pm 30.6 28.7 11.9 31 11.1 SW 13 19 7 10 - - 0.0
15/12:00pm 30.9 29.8 12.1 31 11.2 WNW 9 15 5 8 - - 0.0
15/11:50am 31.9 31.5 12.4 30 11.7 N 6 13 3 7 - - 0.0
15/11:40am 30.9 30.6 12.6 32 11.0 WNW 6 11 3 6 - - 0.0
15/11:30am 30.3 29.8 12.6 33 10.6 NW 7 13 4 7 - - 0.0
15/11:20am 30.9 30.5 13.0 33 10.8 NNW 7 11 4 6 - - 0.0
15/11:10am 30.3 30.3 12.4 33 10.7 SSW 4 7 2 4 - - 0.0
15/11:00am 29.9 29.8 12.1 33 10.5 N 4 7 2 4 - - 0.0
15/10:50am 28.4 28.2 13.5 40 9.0 ENE 7 13 4 7 - - 0.0
15/10:40am 29.1 29.0 13.2 37 9.5 ENE 6 11 3 6 - - 0.0
15/10:30am 29.6 29.6 13.7 37 9.6 WNW 6 13 3 7 - - 0.0
15/10:20am 29.0 28.8 13.6 38 9.3 NE 7 9 4 5 - - 0.0
15/10:10am 28.6 28.4 13.7 40 9.0 NE 7 11 4 6 - - 0.0
15/10:00am 28.5 28.4 13.9 40 8.8 NE 7 9 4 5 - - 0.0
15/09:50am 28.4 28.1 14.5 42 8.5 NNE 9 11 5 6 - - 0.0
15/09:40am 28.2 28.4 14.3 42 8.4 WNW 6 9 3 5 - - 0.0
15/09:30am 27.8 28.0 14.8 45 8.0 N 7 9 4 5 - - 0.0
15/09:20am 27.1 27.4 15.0 47 7.4 NNE 7 9 4 5 - - 0.0
15/09:10am 27.2 27.2 15.2 47 7.4 N 9 15 5 8 - - 0.0
15/09:00am 26.8 27.2 15.3 49 7.1 N 7 13 4 7 - - 0.0
15/08:50am 26.1 26.4 15.1 50 6.7 NNE 7 11 4 6 - - 0.0
15/08:30am 25.7 26.0 15.1 52 6.5 N 7 9 4 5 - - 0.0
15/08:20am 25.2 25.2 15.2 54 6.1 N 9 15 5 8 - - 0.0
15/08:10am 24.8 24.8 15.2 55 5.8 N 9 13 5 7 - - 0.0
15/08:00am 24.2 24.2 15.1 56 5.5 N 9 13 5 7 - - 0.0
15/07:50am 23.9 23.5 15.3 58 5.2 NNE 11 17 6 9 - - 0.0
15/07:40am 23.6 23.2 15.2 59 5.1 NNE 11 15 6 8 - - 0.0
15/07:30am 23.2 23.2 15.3 61 4.8 NNE 9 15 5 8 - - 0.0
15/07:20am 22.7 22.7 15.1 62 4.6 NNE 9 11 5 6 - - 0.0
15/07:10am 22.4 22.4 15.1 63 4.4 NNE 9 11 5 6 - - 0.0
15/07:00am 21.8 22.1 15.0 65 4.1 NNE 7 11 4 6 - - 0.0
15/06:50am 21.4 21.7 14.9 66 3.9 NNE 7 11 4 6 - - 0.0
15/06:40am 21.2 21.7 15.1 68 3.7 NE 6 9 3 5 - - 0.0
15/06:30am 20.9 21.7 14.9 68 3.6 ENE 4 7 2 4 - - 0.0
15/06:20am 20.7 22.2 14.6 68 3.6 CALM 0 4 0 2 - - 0.0
15/06:10am 19.7 21.1 14.4 71 3.1 CALM 0 4 0 2 - - 0.0
15/06:00am 18.7 19.8 13.6 72 2.9 CALM 0 4 0 2 - - 0.0
15/05:50am 17.7 18.2 12.9 73 2.7 N 2 4 1 2 - - 0.0
15/05:40am 16.8 17.5 12.3 75 2.5 CALM 0 2 0 1 - - 0.0
15/05:30am 16.1 16.2 11.6 74 2.5 NNW 2 2 1 1 - - 0.0
15/05:20am 15.6 15.7 11.6 77 2.2 N 2 2 1 1 - - 0.0
15/05:10am 15.4 16.0 11.8 79 2.0 CALM 0 2 0 1 - - 0.0
15/05:00am 15.5 16.1 11.9 79 2.0 CALM 0 0 0 0 - - 0.0
15/04:50am 15.7 15.5 11.7 77 2.2 ENE 4 6 2 3 - - 0.0
15/04:40am 15.7 15.6 12.1 79 2.0 E 4 6 2 3 - - 0.0
15/04:30am 15.6 15.9 12.1 80 1.9 ESE 2 4 1 2 - - 0.0
15/04:20am 15.6 15.4 11.8 78 2.1 E 4 6 2 3 - - 0.0
15/04:10am 15.6 14.9 11.5 76 2.2 E 6 6 3 3 - - 0.0
15/04:00am 15.6 14.8 11.0 74 2.5 E 6 6 3 3 - - 0.0
15/03:50am 15.5 14.7 11.0 74 2.4 ENE 6 6 3 3 - - 0.0
15/03:40am 15.7 15.2 10.6 71 2.7 ENE 4 6 2 3 - - 0.0
15/03:30am 15.9 15.4 10.7 71 2.8 ENE 4 4 2 2 - - 0.0
15/03:20am 16.1 15.6 10.7 70 2.9 ENE 4 4 2 2 - - 0.0
15/03:10am 16.3 16.2 10.8 70 3.0 NE 2 2 1 1 - - 0.0
15/03:00am 16.4 16.7 10.9 70 3.0 CALM 0 2 0 1 - - 0.0
15/02:50am 16.4 16.1 10.2 66 3.3 E 2 4 1 2 - - 0.0
15/02:40am 16.4 15.7 10.0 66 3.4 E 4 4 2 2 - - 0.0
15/02:30am 16.4 15.7 10.1 66 3.4 E 4 4 2 2 - - 0.0
15/02:20am 16.6 16.3 10.2 66 3.4 E 2 4 1 2 - - 0.0
15/02:10am 16.8 16.1 10.1 64 3.6 ENE 4 7 2 4 - - 0.0
15/02:00am 16.9 15.9 10.2 64 3.6 ENE 6 7 3 4 - - 0.0
15/01:50am 16.4 15.2 10.3 67 3.3 E 7 7 4 4 - - 0.0
15/01:40am 16.7 15.7 10.2 65 3.5 E 6 6 3 3 - - 0.0
15/01:30am 16.9 16.6 10.0 64 3.7 NE 2 4 1 2 - - 0.0
15/01:20am 16.9 16.6 10.2 64 3.6 ENE 2 2 1 1 - - 0.0
15/01:10am 17.2 16.9 10.2 63 3.8 ENE 2 4 1 2 - - 0.0
15/01:00am 17.5 17.2 10.2 62 3.9 ENE 2 4 1 2 - - 0.0
15/12:50am 17.6 16.9 10.0 61 4.1 ENE 4 6 2 3 - - 0.0
15/12:40am 17.5 16.7 11.1 66 3.5 E 6 6 3 3 - - 0.0
15/12:30am 17.6 17.0 10.5 63 3.8 E 4 6 2 3 - - 0.0
15/12:20am 17.8 17.6 10.3 61 4.1 ENE 2 4 1 2 - - 0.0
15/12:10am 18.1 17.5 10.4 60 4.2 ENE 4 4 2 2 - - 0.0
15/12:00am 18.6 18.7 10.3 58 4.5 CALM 0 2 0 1 - - 0.0
 
Date/Time
EST
Temp
°C
App
Temp
°C
Dew
Point
°C
Rel
Hum
%
Delta-T
°C
Wind Press
QNH
hPa
Press
MSL
hPa
Rain since
9am
mm
Dir  Spd
km/h
Gust
km/h
Spd
kts
Gust
kts
14/11:50pm 18.6 18.7 10.1 57 4.6 CALM 0 2 0 1 - - 0.0
14/11:40pm 18.5 18.7 10.6 60 4.3 CALM 0 2 0 1 - - 0.0
14/11:30pm 18.7 19.1 11.1 61 4.2 CALM 0 0 0 0 - - 0.0
14/11:10pm 19.1 18.8 10.0 55 4.9 NE 2 4 1 2 - - 0.0
14/11:00pm 19.0 18.7 10.1 56 4.8 NE 2 4 1 2 - - 0.0
14/10:50pm 19.1 18.9 10.4 57 4.7 ENE 2 4 1 2 - - 0.0
14/10:40pm 19.2 18.7 10.8 58 4.6 ENE 4 4 2 2 - - 0.0
14/10:30pm 19.6 19.4 10.6 56 4.9 N 2 6 1 3 - - 0.0
14/10:20pm 20.0 20.2 10.6 54 5.2 CALM 0 0 0 0 - - 0.0
14/10:10pm 20.3 20.4 10.1 52 5.6 CALM 0 2 0 1 - - 0.0
14/10:00pm 20.5 20.6 10.1 51 5.7 CALM 0 2 0 1 - - 0.0
14/09:50pm 20.8 21.1 11.0 53 5.5 CALM 0 2 0 1 - - 0.0
14/09:40pm 21.2 21.2 11.1 52 5.6 ESE 2 4 1 2 - - 0.0
14/09:30pm 21.5 21.4 10.9 51 5.9 ESE 2 4 1 2 - - 0.0
14/09:20pm 21.9 21.4 10.8 49 6.2 E 4 6 2 3 - - 0.0
14/09:10pm 22.2 22.0 11.7 51 6.0 NE 4 6 2 3 - - 0.0
14/09:00pm 22.6 22.7 10.2 45 6.9 CALM 0 4 0 2 - - 0.0
14/08:50pm 22.9 22.9 11.0 47 6.7 SSE 2 4 1 2 - - 0.0
14/08:40pm 23.3 23.3 9.9 42 7.4 CALM 0 0 0 0 - - 0.0
14/08:30pm 23.6 23.7 10.1 42 7.5 CALM 0 2 0 1 - - 0.0
14/08:20pm 23.8 23.8 9.7 40 7.8 CALM 0 0 0 0 - - 0.0
14/08:10pm 23.8 23.8 9.9 41 7.7 CALM 0 0 0 0 - - 0.0
14/08:00pm 24.0 24.0 9.9 41 7.8 CALM 0 0 0 0 - - 0.0
14/07:50pm 24.2 24.0 9.2 38 8.2 CALM 0 0 0 0 - - 0.0
14/07:40pm 24.5 24.4 9.4 38 8.3 CALM 0 0 0 0 - - 0.0
14/07:30pm 24.9 24.8 9.4 37 8.6 CALM 0 0 0 0 - - 0.0
14/07:20pm 25.3 25.1 9.2 36 8.9 CALM 0 0 0 0 - - 0.0
14/07:10pm 25.6 25.5 9.3 35 9.0 CALM 0 2 0 1 - - 0.0
14/07:00pm 25.9 25.2 8.5 33 9.5 NE 2 4 1 2 - - 0.0
14/06:50pm 26.0 24.5 8.6 33 9.5 ENE 6 7 3 4 - - 0.0
14/06:40pm 26.5 25.0 8.6 32 9.8 ENE 6 7 3 4 - - 0.0
14/06:30pm 26.8 25.3 8.6 31 10.0 NE 6 6 3 3 - - 0.0
14/06:20pm 27.1 25.7 8.8 31 10.1 NE 6 6 3 3 - - 0.0
14/06:10pm 27.3 25.9 8.9 31 10.2 NE 6 7 3 4 - - 0.0
14/06:00pm 27.3 25.7 8.8 31 10.2 ENE 7 9 4 5 - - 0.0
14/05:50pm 27.6 25.9 9.8 32 10.0 E 9 11 5 6 - - 0.0
14/05:40pm 27.6 26.0 8.9 31 10.4 E 7 7 4 4 - - 0.0
14/05:30pm 27.6 26.6 8.9 31 10.4 ENE 4 7 2 4 - - 0.0
14/05:20pm 27.6 26.3 9.1 31 10.3 ENE 6 6 3 3 - - 0.0
14/05:10pm 27.7 26.4 9.1 31 10.4 ESE 6 6 3 3 - - 0.0
14/05:00pm 27.8 26.9 9.2 31 10.4 E 4 6 2 3 - - 0.0
14/04:50pm 28.0 27.4 9.1 30 10.6 E 2 4 1 2 - - 0.0
14/04:40pm 28.0 27.9 9.3 31 10.5 CALM 0 2 0 1 - - 0.0
14/04:30pm 27.8 26.5 9.2 31 10.4 E 6 7 3 4 - - 0.0
14/04:20pm 28.0 27.1 9.2 30 10.5 ESE 4 7 2 4 - - 0.0
14/04:10pm 28.1 27.6 9.2 30 10.6 S 2 4 1 2 - - 0.0
14/04:00pm 28.2 28.1 9.4 30 10.6 CALM 0 2 0 1 - - 0.0
14/03:50pm 28.2 27.3 9.3 30 10.6 - 4 4 2 2 - - 0.0
14/03:40pm 28.4 28.0 9.6 31 10.6 NW 2 6 1 3 - - 0.0
14/03:30pm 28.3 27.8 9.4 30 10.6 NE 2 7 1 4 - - 0.0
14/03:20pm 28.3 26.8 9.3 30 10.7 SE 7 9 4 5 - - 0.0
14/03:10pm 28.8 27.6 9.7 30 10.8 S 6 11 3 6 - - 0.0
14/03:00pm 29.1 28.4 9.9 30 10.9 N 4 6 2 3 - - 0.0
14/02:50pm 29.1 28.7 9.6 29 11.0 W 2 4 1 2 - - 0.0
14/02:40pm 28.0 26.7 9.1 30 10.6 S 6 7 3 4 - - 0.0
14/02:30pm 27.4 26.0 9.5 32 10.0 S 7 11 4 6 - - 0.0
14/02:20pm 27.5 26.1 9.4 32 10.1 S 7 9 4 5 - - 0.0
14/02:10pm 27.4 26.0 9.4 32 10.1 S 7 7 4 4 - - 0.0
14/02:00pm 27.4 26.1 9.8 33 9.9 SSE 7 9 4 5 - - 0.0
14/01:50pm 27.7 26.8 9.4 31 10.3 WSW 4 7 2 4 - - 0.0
14/01:40pm 27.8 27.0 9.7 32 10.2 WNW 4 6 2 3 - - 0.0
14/01:30pm 27.9 26.8 9.8 32 10.2 NE 6 7 3 4 - - 0.0
14/01:20pm 28.1 27.4 9.9 32 10.3 ENE 4 7 2 4 - - 0.0
14/01:10pm 27.9 27.1 9.5 31 10.3 SSW 4 9 2 5 - - 0.0
14/01:00pm 27.7 26.3 9.5 32 10.2 SE 7 9 4 5 - - 0.0
14/12:50pm 27.8 26.6 9.4 31 10.3 S 6 9 3 5 - - 0.0
14/12:40pm 27.7 26.3 9.4 31 10.3 SSE 7 9 4 5 - - 0.0
14/12:30pm 27.2 26.0 9.5 33 9.9 SE 6 11 3 6 - - 0.0
14/12:20pm 27.2 26.0 9.6 33 9.9 SE 6 9 3 5 - - 0.0
14/12:10pm 27.3 26.5 9.5 32 10.0 SSW 4 7 2 4 - - 0.0
14/12:00pm 27.5 26.3 9.7 32 10.0 SSE 6 9 3 5 - - 0.0
14/11:50am 27.6 26.9 10.0 33 10.0 S 4 9 2 5 - - 0.0
14/11:40am 27.7 26.9 9.8 32 10.1 NNE 4 9 2 5 - - 0.0
14/11:30am 27.1 25.8 9.1 32 10.0 ENE 6 7 3 4 - - 0.0
14/11:20am 26.1 25.0 9.9 36 9.1 NNE 6 11 3 6 - - 0.0
14/11:10am 26.1 24.4 9.7 35 9.2 NE 9 11 5 6 - - 0.0
14/11:00am 25.8 24.4 9.6 36 9.0 NNE 7 13 4 7 - - 0.0
14/10:50am 25.5 23.6 10.4 38 8.5 N 11 15 6 8 - - 0.0
14/10:40am 25.5 23.1 10.0 37 8.7 NNE 13 15 7 8 - - 0.0
14/10:30am 25.3 23.0 10.5 39 8.4 N 13 15 7 8 - - 0.0
14/10:20am 25.6 23.8 10.9 39 8.4 N 11 15 6 8 - - 0.0
14/10:10am 26.0 24.2 10.9 38 8.6 N 11 15 6 8 - - 0.0
14/10:00am 26.0 23.8 10.9 38 8.6 N 13 17 7 9 - - 0.0
14/09:50am 26.3 23.8 9.6 35 9.3 NNE 13 17 7 9 - - 0.0
14/09:40am 25.2 22.8 11.5 42 7.9 NNE 15 19 8 10 - - 0.0
14/09:30am 25.7 23.6 11.1 40 8.3 N 13 19 7 10 - - 0.0
14/09:20am 25.1 23.0 11.3 42 7.9 NNE 13 15 7 8 - - 0.0
14/09:10am 24.3 22.2 11.0 43 7.5 N 13 17 7 9 - - 0.0
14/09:00am 24.1 22.8 11.4 45 7.2 NE 9 13 5 7 - - 0.0
14/08:50am 24.0 22.6 11.0 44 7.4 NE 9 13 5 7 - - 0.0
14/08:40am 23.5 21.4 11.0 45 7.1 NNE 13 15 7 8 - - 0.0
14/08:30am 23.2 20.6 10.8 45 7.0 NNE 15 19 8 10 - - 0.0
14/08:20am 22.7 19.6 10.2 45 6.9 NNE 17 19 9 10 - - 0.0
14/08:10am 22.2 20.0 10.7 48 6.4 NE 13 17 7 9 - - 0.0
14/08:00am 21.8 19.1 10.5 48 6.3 NE 15 17 8 9 - - 0.0
14/07:50am 21.5 18.7 10.1 48 6.3 NNE 15 19 8 10 - - 0.0
14/07:40am 21.2 18.9 10.5 50 5.9 NE 13 19 7 10 - - 0.0
14/07:30am 21.1 19.3 10.9 52 5.7 NE 11 17 6 9 - - 0.0
14/07:20am 20.9 19.1 10.9 52 5.6 NE 11 15 6 8 - - 0.0
14/07:10am 20.4 19.1 11.1 55 5.2 NE 9 11 5 6 - - 0.0
14/07:00am 19.9 18.9 11.1 57 4.9 NNE 7 11 4 6 - - 0.0
14/06:50am 19.7 18.7 10.9 57 4.9 NE 7 11 4 6 - - 0.0
14/06:40am 19.1 18.1 11.1 59 4.4 NE 7 9 4 5 - - 0.0
14/06:30am 18.9 18.0 11.2 61 4.3 NE 7 9 4 5 - - 0.0
14/06:20am 18.5 17.6 11.2 62 4.0 NE 7 9 4 5 - - 0.0
14/06:10am 18.5 17.8 11.4 63 3.9 NE 6 7 3 4 - - 0.0
14/06:00am 18.3 17.4 11.4 64 3.8 NE 7 9 4 5 - - 0.0
14/05:50am 17.9 17.1 11.1 64 3.7 ENE 6 7 3 4 - - 0.0
14/05:40am 16.9 15.9 11.1 68 3.2 ENE 7 9 4 5 - - 0.0
14/05:30am 16.6 15.3 11.1 70 3.0 ENE 9 11 5 6 - - 0.0
14/05:20am 16.4 14.3 11.1 71 2.9 ENE 13 13 7 7 - - 0.0
14/05:10am 16.3 14.2 11.1 71 2.8 ENE 13 15 7 8 - - 0.0
14/05:00am 16.2 14.1 11.0 71 2.8 ENE 13 15 7 8 - - 0.0
14/04:50am 16.2 14.5 11.1 72 2.8 ENE 11 13 6 7 - - 0.0
14/04:40am 16.3 14.6 11.1 71 2.8 ENE 11 11 6 6 - - 0.0
14/04:30am 16.4 15.5 11.2 71 2.8 ENE 7 11 4 6 - - 0.0
14/04:20am 16.5 14.8 11.1 70 2.9 ENE 11 11 6 6 - - 0.0
14/04:10am 16.5 14.8 11.1 70 2.9 ENE 11 11 6 6 - - 0.0
14/04:00am 16.5 14.8 11.2 71 2.9 ENE 11 13 6 7 - - 0.0
14/03:50am 16.5 14.8 11.2 71 2.9 ENE 11 13 6 7 - - 0.0
14/03:40am 16.4 14.8 11.4 72 2.7 ENE 11 11 6 6 - - 0.0
14/03:30am 16.9 16.0 11.3 69 3.1 ENE 7 9 4 5 - - 0.0
14/03:20am 17.1 16.2 11.4 69 3.1 ENE 7 9 4 5 - - 0.0
14/03:10am 17.1 15.8 11.4 69 3.1 ENE 9 9 5 5 - - 0.0
14/03:00am 17.2 16.3 11.4 68 3.2 ENE 7 9 4 5 - - 0.0
14/02:50am 17.3 16.4 11.4 68 3.2 ENE 7 7 4 4 - - 0.0
14/02:40am 17.3 16.4 11.3 68 3.3 ENE 7 9 4 5 - - 0.0
14/02:30am 17.3 16.4 11.4 68 3.2 ENE 7 9 4 5 - - 0.0
14/02:20am 17.4 16.5 11.3 67 3.4 ENE 7 7 4 4 - - 0.0
14/02:10am 17.5 16.2 11.4 67 3.4 ENE 9 11 5 6 - - 0.0
14/02:00am 17.6 16.0 11.4 67 3.4 ENE 11 11 6 6 - - 0.0
14/01:50am 17.6 15.9 11.3 66 3.5 ENE 11 11 6 6 - - 0.0
14/01:40am 17.8 16.1 11.3 65 3.6 ENE 11 13 6 7 - - 0.0
14/01:30am 18.1 17.2 11.2 64 3.8 ENE 7 9 4 5 - - 0.0
14/01:20am 18.1 16.4 11.2 64 3.8 ENE 11 11 6 6 - - 0.0
14/01:10am 18.2 16.4 11.0 63 4.0 ENE 11 13 6 7 - - 0.0
14/01:00am 18.3 17.2 10.8 61 4.1 ENE 7 9 4 5 - - 0.0
14/12:50am 18.6 17.5 10.7 60 4.3 ENE 7 7 4 4 - - 0.0
14/12:40am 19.0 18.1 10.7 58 4.5 NE 6 7 3 4 - - 0.0
14/12:30am 19.2 18.1 10.6 57 4.7 NE 7 9 4 5 - - 0.0
14/12:20am 19.3 18.2 10.5 56 4.8 NE 7 9 4 5 - - 0.0
14/12:00am 19.6 18.5 10.5 55 5.0 NE 7 9 4 5 - - 0.0
 
Date/Time
EST
Temp
°C
App
Temp
°C
Dew
Point
°C
Rel
Hum
%
Delta-T
°C
Wind Press
QNH
hPa
Press
MSL
hPa
Rain since
9am
mm
Dir  Spd
km/h
Gust
km/h
Spd
kts
Gust
kts
13/11:50pm 19.7 18.6 10.5 55 5.0 NE 7 9 4 5 - - 0.0
13/11:40pm 19.9 18.8 10.6 55 5.1 NE 7 9 4 5 - - 0.0
13/11:30pm 20.2 18.7 10.6 54 5.3 NE 9 11 5 6 - - 0.0
13/11:20pm 20.3 18.8 10.6 53 5.3 NE 9 13 5 7 - - 0.0
13/11:10pm 20.5 18.6 10.6 53 5.5 NE 11 15 6 8 - - 0.0
13/11:00pm 20.7 19.2 10.6 52 5.6 NE 9 11 5 6 - - 0.0
13/10:50pm 20.8 19.0 10.7 52 5.6 NE 11 13 6 7 - - 0.0
13/10:40pm 21.0 19.5 10.7 51 5.7 NE 9 13 5 7 - - 0.0
13/10:30pm 21.2 19.7 10.7 51 5.8 NE 9 11 5 6 - - 0.0
13/10:20pm 21.7 19.5 10.7 49 6.1 NE 13 15 7 8 - - 0.0
13/10:10pm 21.9 19.7 10.7 49 6.2 NE 13 17 7 9 - - 0.0
13/10:00pm 22.1 20.3 10.7 48 6.4 NE 11 15 6 8 - - 0.0
13/09:50pm 22.3 20.1 10.7 47 6.5 NE 13 17 7 9 - - 0.0
13/09:40pm 22.6 20.0 10.8 47 6.6 NE 15 17 8 9 - - 0.0
13/09:30pm 22.8 20.6 10.8 46 6.7 NE 13 15 7 8 - - 0.0
13/09:20pm 23.0 20.4 10.8 46 6.8 NE 15 19 8 10 - - 0.0
13/09:10pm 23.3 21.1 10.7 45 7.1 NE 13 19 7 10 - - 0.0
13/09:00pm 23.5 21.4 9.7 41 7.6 NE 11 13 6 7 - - 0.0
13/08:50pm 23.8 20.7 9.0 39 8.1 ENE 15 19 8 10 - - 0.0
13/08:40pm 24.0 20.8 8.6 37 8.4 ENE 15 17 8 9 - - 0.0
13/08:30pm 24.3 20.2 7.9 35 8.8 ENE 19 22 10 12 - - 0.0
13/08:20pm 24.1 21.0 7.4 34 8.9 ENE 13 19 7 10 - - 0.0
13/08:10pm 23.9 21.5 6.9 33 8.9 NE 9 13 5 7 - - 0.0
13/08:00pm 23.7 20.8 6.7 33 8.9 ENE 11 13 6 7 - - 0.0
13/07:50pm 23.9 21.0 6.4 32 9.1 ENE 11 13 6 7 - - 0.0
13/07:40pm 24.3 21.3 6.0 30 9.5 ENE 11 13 6 7 - - 0.0

Other Formats:

Comma delimited format used in spreadsheet applications
http://www.bom.gov.au/fwo/IDQ60801/IDQ60801.99122.axf

JavaScript Object Notation format (JSON) in row-major order
http://www.bom.gov.au/fwo/IDQ60801/IDQ60801.99122.json